Salt Lake City, Utah
Traffic Map
Current Weather Conditions
Salt Lake City, Utah
Clear Haze
Clear
27°
Feels Like: 27°
Wind Chill: 27° Ceiling: Unl
Heat Index: 27° Visibility: 3mi
Dew Point: 24° Wind: 0mph
Humidity: 89% Direction: ° ()
Pressure: 30.59in Gusts: 0mph
Raw Report DataKSLC 110354Z 00000KT 3SM BR CLR M03/M04 A3059 RMK AO2 SLP388 T10281044 $
Traffic Incident Summary
Active as of:
Severity:
Category:
InformationThere was an issue retrieving the traffic information for this location. Please try a different location or try again shortly.
Advertisements